Boyd Deep Canyon Reserve, California Weather observations

Data are for 10 minute period ending at time listed.
 Day   Time   Solar   Ave.   Ave.  Ave.  Vector  Max.   Baro.   Total    
  of    of     Rad.   Air    Rel.  Wind   Wind   Wind  Press.  Precip.   
Year   Day            Temp.  Hum.  Speed  Dir.   Gust                    
2014   (PST)  Kw/m2    F      %     mph   deg.    mph    mb.     in.     
-------------------------------------------------------------------------
 258    1:30   0.00   91.5    23    8.3   216    14.4   972.9    0.00 
 258    1:40   0.00   91.5    23    7.5   216    11.8   972.9    0.00 
 258    1:50   0.00   91.4    23    8.5   218    14.5   972.9    0.00 
 258    2:00   0.00   91.3    23    9.4   213    13.7   972.9    0.00 
 258    2:10   0.00   91.1    23    9.4   217    14.1   972.8    0.00 
 258    2:20   0.00   91.1    23    8.6   224    12.7   972.8    0.00 
 258    2:30   0.00   91.1    23    9.8   219    16.4   972.8    0.00 
 258    2:40   0.00   91.0    23   10.4   212    16.4   972.8    0.00 
 258    2:50   0.00   91.1    23   12.5   205    16.6   972.8    0.00 
 258    3:00   0.00   91.4    22   12.6   203    19.6   972.8    0.00 
 258    3:10   0.00   91.1    22   11.7   205    19.1   972.8    0.00 
 258    3:20   0.00   91.2    22   12.7   209    18.5   972.8    0.00 
 258    3:30   0.00   91.1    22   13.6   208    20.2   972.9    0.00 
 258    3:40   0.00   90.9    22   11.6   210    18.9   972.9    0.00 
 258    3:50   0.00   90.8    22   11.2   208    17.1   973.0    0.00 
 258    4:00   0.00   90.8    22   11.8   207    20.5   973.1    0.00 
 258    4:10   0.00   91.0    22   13.5   204    20.3   973.1    0.00 
 258    4:20   0.00   90.9    22   12.3   207    18.0   973.2    0.00 
 258    4:30   0.00   90.6    22   10.3   206    16.9   973.3    0.00 
 258    4:40   0.00   90.6    22   11.2   202    17.6   973.4    0.00 
 258    4:50   0.00   90.7    22   11.6   202    17.9   973.5    0.00 
 258    5:00   0.00   90.7    22   10.4   200    15.3   973.5    0.00 
 258    5:10   0.00   90.8    23    9.6   197    14.8   973.6    0.00 
 258    5:20   0.00   90.9    23   10.0   200    16.1   973.6    0.00 
 258    5:30   0.00   90.5    23    9.7   199    14.8   973.7    0.00 
 258    5:40   0.00   90.7    23    9.9   195    15.7   973.8    0.00 
 258    5:50   0.01   91.0    23    7.5   185    13.2   973.9    0.00 
 258    6:00   0.01   90.8    24    7.4   193    12.3   974.1    0.00 
 258    6:10   0.01   90.9    24    8.5   198    14.1   974.1    0.00 
 258    6:20   0.03   90.8    24    7.6   201    11.5   974.2    0.00 
 258    6:30   0.13   92.0    23    6.9   202    11.5   974.2    0.00 
 258    6:40   0.16   92.4    22    7.1   215     9.7   974.2    0.00 
 258    6:50   0.20   93.0    22    6.8   214    11.7   974.3    0.00 
 258    7:00   0.23   93.8    22    5.5   206    10.1   974.3    0.00 
 258    7:10   0.27   95.1    21    2.9   182     8.0   974.4    0.00 
 258    7:20   0.30   96.1    21    3.0   226     6.9   974.6    0.00 
 258    7:30   0.34   92.4    25    5.0     8     6.9   974.8    0.00 
 258    7:40   0.37   92.6    25    3.5    23     5.3   974.9    0.00 
 258    7:50   0.41   93.6    24    2.5    21     4.1   975.1    0.00 
 258    8:00   0.44   95.1    22    1.6    60     3.4   975.1    0.00 
 258    8:10   0.47   96.1    21    1.3   144     2.4   975.2    0.00 
 258    8:20   0.51   96.8    21    1.3   181     3.0   975.3    0.00 
 258    8:30   0.54   97.8    20    1.9   156     4.1   975.4    0.00 
 258    8:40   0.57   98.4    20    1.3   149     2.4   975.4    0.00 
 258    8:50   0.60   99.1    19    1.5   351     3.2   975.5    0.00 
 258    9:00   0.63   99.5    19    2.1   127     3.9   975.6    0.00 
 258    9:10   0.66  100.4    18    1.5    20     3.4   975.6    0.00 
 258    9:20   0.68  100.8    18    1.3   177     3.4   975.5    0.00 
 258    9:30   0.71  101.5    18    1.9    73     4.5   975.5    0.00 
 258    9:40   0.73  100.7    18    1.3   283     3.4   975.5    0.00 
 258    9:50   0.75  101.9    18    3.3   348     7.2   975.5    0.00 
 258   10:00   0.77  101.9    18    4.4     8     7.8   975.5    0.00 
 258   10:10   0.79  101.8    18    2.5   319     4.8   975.4    0.00 
 258   10:20   0.81  102.2    18    2.8    63     8.8   975.4    0.00 
 258   10:30   0.82  102.2    17    4.5    81     9.5   975.4    0.00 
 258   10:40   0.84  103.0    17    3.0    58     7.4   975.4    0.00 
 258   10:50   0.85  103.1    17    4.9    22     9.8   975.2    0.00 
 258   11:00   0.86  103.3    17    4.5    61    11.8   975.2    0.00 
 258   11:10   0.87  103.3    16    3.3    43    10.2   975.1    0.00 
 258   11:20   0.88  103.3    16    4.6    78    12.7   975.1    0.00 
 258   11:30   0.88  103.5    16    4.9    83    11.4   975.0    0.00 
 258   11:40   0.88  103.5    16    6.1    31    11.2   974.9    0.00 
 258   11:50   0.88  103.7    16    5.3    74    15.6   974.7    0.00 
 258   12:00   0.88  103.2    16    4.1    66     8.6   974.6    0.00 
 258   12:10   0.88  103.8    16    5.0    80     9.1   974.5    0.00 
 258   12:20   0.85  104.1    16    5.1    62    14.5   974.4    0.00 
 258   12:30   0.87  103.5    16    3.9   144    10.7   974.3    0.00 
 258   12:40   0.86  104.3    16    4.1    92     9.8   974.2    0.00 
 258   12:50   0.85  104.5    15    4.4   186    11.4   974.1    0.00 
 258   13:00   0.84  104.5    16    4.6    66    11.7   974.0    0.00 
 258   13:10   0.83  104.4    16    3.7    94    10.4   973.8    0.00 
 258   13:20   0.81  105.1    15    4.9    60    10.7   973.6    0.00 
 258   13:30   0.79  104.3    16    6.3    59    12.3   973.5    0.00 
 258   13:40   0.78  104.5    16    4.4    98    10.1   973.3    0.00 
 258   13:50   0.76  104.8    15    2.2    84     5.8   973.2    0.00 
 258   14:00   0.73  105.2    15    5.3    94    12.9   973.0    0.00 
 258   14:10   0.70  105.7    15    7.7    42    11.4   972.9    0.00 
 258   14:20   0.68  104.9    14    5.5    68    11.7   972.8    0.00 
 258   14:30   0.65  105.1    14    4.4    77    12.9   972.7    0.00 
 258   14:40   0.62  105.2    14    4.6    71    11.2   972.6    0.00 
 258   14:50   0.60  105.4    14    5.4    56    13.3   972.5    0.00 
 258   15:00   0.56  105.8    14    5.2    37    11.4   972.4    0.00 
 258   15:10   0.53  105.6    15    6.7    57    12.1   972.3    0.00 
 258   15:20   0.50  104.9    15    5.7    54    12.8   972.3    0.00 
 258   15:30   0.46  105.4    15    8.0    35    14.9   972.2    0.00 
 258   15:40   0.43  105.3    15    5.8    44    12.3   972.3    0.00 
 258   15:50   0.39  104.5    15    5.6    63    12.0   972.3    0.00 
 258   16:00   0.35  104.8    14    6.9    64    12.5   972.2    0.00 
 258   16:10   0.32  104.6    14    6.2    75    12.6   972.1    0.00 
 258   16:20   0.28  104.6    15    4.3    57     8.6   972.1    0.00 
 258   16:30   0.24  104.2    16    6.1    76    11.2   972.1    0.00 
 258   16:40   0.21  104.0    16    6.3    73    12.3   972.1    0.00 
 258   16:50   0.17  103.9    16    6.9    61    11.2   972.1    0.00 
 258   17:00   0.04  103.3    16    6.3    64     9.5   972.2    0.00 
 258   17:10   0.01  102.4    17    5.2    74     9.9   972.2    0.00 
 258   17:20   0.01  102.3    17    5.1    65     9.1   972.2    0.00 
 258   17:30   0.01  102.1    17    4.4    63     7.7   972.1    0.00 
 258   17:40   0.01  101.7    18    5.0    74    10.0   972.1    0.00 
 258   17:50   0.00  101.3    18    5.1    66     8.0   972.1    0.00 
 258   18:00   0.00  100.9    20    3.6    73     6.3   972.1    0.00 
 258   18:10   0.00  100.5    20    3.3    68     5.8   972.2    0.00 
 258   18:20   0.00  100.6    19    2.4    97     4.1   972.2    0.00 
 258   18:30   0.00  100.8    18    3.8   182     6.7   972.2    0.00 
 258   18:40   0.00  100.8    18    5.2   178     8.4   972.2    0.00 
 258   18:50   0.00  100.6    18    4.1   190     7.7   972.3    0.00 
 258   19:00   0.00  100.5    18    5.8   172     9.3   972.4    0.00 
 258   19:10   0.00  100.1    19    5.5   185     7.7   972.5    0.00 
 258   19:20   0.00   99.6    19    7.7   199    13.0   972.6    0.00 
 258   19:30   0.00   99.2    19    6.9   180    12.7   972.8    0.00 
 258   19:40   0.00   98.9    19    7.8   183    13.4   972.8    0.00 
 258   19:50   0.00   98.5    19    9.3   173    15.6   973.0    0.00 
 258   20:00   0.00   98.6    19    9.5   174    14.0   973.1    0.00 
 258   20:10   0.00   98.5    19   10.8   174    15.9   973.2    0.00 
 258   20:20   0.00   98.5    19   10.2   175    15.2   973.3    0.00 
 258   20:30   0.00   98.2    20    9.8   180    16.7   973.4    0.00 
 258   20:40   0.00   97.6    20    7.8   192    11.4   973.5    0.00 
 258   20:50   0.00   97.1    20    9.0   200    14.2   973.5    0.00 
 258   21:00   0.00   96.7    20   10.8   205    16.0   973.6    0.00 
 258   21:10   0.00   96.3    20   11.7   211    17.2   973.7    0.00 
 258   21:20   0.00   96.0    20    9.3   208    15.1   973.8    0.00 
 258   21:30   0.00   95.9    20    6.5   212    11.4   973.8    0.00 
 258   21:40   0.00   95.8    20    9.2   223    13.9   973.9    0.00 
 258   21:50   0.00   95.7    20    8.1   221    11.5   973.9    0.00 
 258   22:00   0.00   95.5    20    8.1   214    11.6   973.8    0.00 
 258   22:10   0.00   95.3    20    7.6   214    11.3   973.8    0.00 
 258   22:20   0.00   95.3    21    7.8   201    12.3   973.8    0.00 
 258   22:30   0.00   95.1    21    8.0   206    12.5   973.8    0.00 
 258   22:40   0.00   94.9    21    7.2   212    10.9   973.7    0.00 
 258   22:50   0.00   94.6    22    6.6   208     9.7   973.7    0.00 
 258   23:00   0.00   94.4    22    6.7   208    10.3   973.6    0.00 
 258   23:10   0.00   94.6    22    7.3   206    11.7   973.6    0.00 
 258   23:20   0.00   94.9    23    5.4   128    10.9   973.9    0.00 
 258   23:30   0.00   94.1    27    7.8    76    14.0   973.8    0.00 
 258   23:40   0.00   91.5    42    7.2    94    15.1   973.8    0.00 
 258   23:50   0.00   88.6    57    8.1    83    12.6   973.8    0.00 
 259    0:00   0.00   87.3    63   10.1    89    15.8   973.8    0.00 
 259    0:10   0.00   87.0    64    8.9   104    14.5   973.8    0.00 
 259    0:20   0.00   86.8    64   10.5    80    17.3   973.9    0.00 
 259    0:30   0.00   86.6    64    9.2    78    18.3   974.1    0.00 
 259    0:40   0.00   86.3    65    5.4    84    10.7   974.1    0.00 
 259    0:50   0.00   86.1    65    7.2    90    13.5   974.2    0.00 
 259    1:00   0.00   85.7    66    7.3    94    12.1   974.4    0.00 
 259    1:10   0.00   85.4    66    7.6    88    13.7   974.4    0.00 
 259    1:20   0.00   85.3    66    9.3    78    12.6   974.4    0.00 

Return to Boyd Deep Canyon Reserve graphs page.


Western Regional Climate Center,wrcc@dri.edu